ラロトンガ の空港の天気 - METARとTAF

ラロトンガ国際空港 ( NCRG / RAR ) - クック諸島 アバルア (ラロトンガ島)
飛行場実況気象(Metar)
観測時間05/31 21:00 CKT (06/01 07:00 UTC)
風向・風速東南東 4m/s
視程10km以上
天気現象
全天の8割程度の雲 雲底高度 1370m
気温24℃
湿度74%
気圧1020hPa
METARNCRG 010700Z AUTO 12007KT 070V180 9999 BKN045/// 24/19 Q1020
過去の天気等 Google飛行場航空写真 Wunderground天気予報

過去48時間のMETAR

飛行場予報(TAF)
発表時間: 5/31 19:14 CKT (6/01 05:14 UTC)
予報対象時間: 31日20時 CKT ~ 1日20時 CKT
風向・風速東南東 5m/s
視程10km以上
天気現象弱いしゅう雨
全天の4割程度の雲 雲底高度 550m
全天の8割程度の雲 雲底高度 m
31日20時 CKT ~ 1日8時 CKT に 確率 40% で一時的に
視程5000m
天気現象しゅう雨
全天の8割程度の雲 雲底高度 460m
1日14時 CKT ~ 1日20時 CKT に 確率 30% で一時的に
視程5000m
天気現象しゅう雨
全天の8割程度の雲 雲底高度 460m
TAF NCRG 010514Z 0106/0206 12009KT 9999 -SHRA SCT018 BKN40
PROB40 TEMPO 0106/0118 5000 SHRA BKN015
PROB30 TEMPO 0200/0206 5000 SHRA BKN015